Time;durP1;ratioP1;P1;durP2;ratioP2;P2;SDS_P1;SDS_P2;PMS_P1;PMS_P2;Temp;Humidity;BMP_temperature;BMP_pressure;BME280_temperature;BME280_humidity;BME280_pressure;Samples;Min_cycle;Max_cycle;Signal;HPM_P1;HPM_P2
2022/12/24 00:00:05;;;;;;;6.63;4.30;;;10.70;89.60;;;;;;5072643;28;20056;-77
2022/12/24 00:02:30;;;;;;;7.75;4.60;;;10.70;89.40;;;;;;5077033;28;20422;-77
2022/12/24 00:04:56;;;;;;;6.93;4.30;;;10.70;89.50;;;;;;5084074;28;20091;-78
2022/12/24 00:07:21;;;;;;;7.07;4.10;;;10.70;89.70;;;;;;5092468;28;20027;-78
2022/12/24 00:09:47;;;;;;;6.70;4.10;;;10.70;89.60;;;;;;5091188;28;20389;-78
2022/12/24 00:12:12;;;;;;;7.57;4.07;;;10.70;89.50;;;;;;5087809;28;20448;-78
2022/12/24 00:14:38;;;;;;;7.55;4.25;;;10.70;90.00;;;;;;5081405;28;20032;-77
2022/12/24 00:17:03;;;;;;;6.88;4.13;;;10.70;89.70;;;;;;5070941;28;20032;-78
2022/12/24 00:19:29;;;;;;;6.90;4.32;;;10.80;89.60;;;;;;5070952;28;20548;-78
2022/12/24 00:21:54;;;;;;;7.00;4.50;;;10.80;89.40;;;;;;5081273;28;20017;-78
2022/12/24 00:24:20;;;;;;;7.43;4.38;;;10.80;89.10;;;;;;5070888;28;20658;-78
2022/12/24 00:26:45;;;;;;;7.25;4.28;;;10.80;88.90;;;;;;5072094;28;20104;-77
2022/12/24 00:29:11;;;;;;;7.18;4.07;;;10.80;88.70;;;;;;5072743;28;20039;-79
2022/12/24 00:31:36;;;;;;;6.82;3.97;;;10.90;88.80;;;;;;5073092;28;20578;-82
2022/12/24 00:34:02;;;;;;;6.90;3.80;;;10.90;88.80;;;;;;5088840;28;20024;-77
2022/12/24 00:36:27;;;;;;;7.75;4.13;;;10.90;88.90;;;;;;5090898;28;20036;-76
2022/12/24 00:38:53;;;;;;;6.72;4.00;;;10.80;88.90;;;;;;5092748;28;20030;-80
2022/12/24 00:41:24;;;;;;;6.90;3.90;;;10.80;89.10;;;;;;5090796;28;20046;-77
2022/12/24 00:44:01;;;;;;;7.72;4.15;;;10.80;89.30;;;;;;5071038;28;20021;-78
2022/12/24 00:46:30;;;;;;;6.72;3.92;;;10.80;89.40;;;;;;5072726;28;20028;-80
2022/12/24 00:48:55;;;;;;;7.35;4.20;;;10.80;89.50;;;;;;5087584;28;20027;-78
2022/12/24 00:51:22;;;;;;;7.10;3.90;;;10.80;89.50;;;;;;5071922;28;20024;-76
2022/12/24 00:53:48;;;;;;;6.80;3.60;;;10.70;89.60;;;;;;5092262;28;20047;-79
2022/12/24 00:56:14;;;;;;;6.18;3.67;;;10.70;89.60;;;;;;5093078;28;20032;-76
2022/12/24 00:58:40;;;;;;;6.45;3.75;;;10.70;89.60;;;;;;5097361;28;20047;-80
2022/12/24 01:01:05;;;;;;;7.20;4.55;;;10.70;89.60;;;;;;5096262;28;20474;-78
2022/12/24 01:03:34;;;;;;;7.50;4.03;;;10.70;89.60;;;;;;5094321;28;20024;-77
2022/12/24 01:06:05;;;;;;;7.35;4.05;;;10.70;90.00;;;;;;5094561;28;20160;-77
2022/12/24 01:08:31;;;;;;;7.18;3.80;;;10.70;89.60;;;;;;5094540;28;20039;-77
2022/12/24 01:10:58;;;;;;;6.28;3.47;;;10.70;89.70;;;;;;5095466;28;20518;-77
2022/12/24 01:13:23;;;;;;;6.07;3.47;;;10.70;89.70;;;;;;5087302;28;20051;-79
2022/12/24 01:15:49;;;;;;;7.00;3.67;;;10.70;89.70;;;;;;5094975;28;20510;-78
2022/12/24 01:18:15;;;;;;;7.05;3.70;;;10.70;89.70;;;;;;5094184;28;20478;-76
2022/12/24 01:20:41;;;;;;;6.68;3.70;;;10.70;89.70;;;;;;5095718;28;20052;-79
2022/12/24 01:23:06;;;;;;;6.65;3.40;;;10.70;89.70;;;;;;5084594;28;20029;-76
2022/12/24 01:25:32;;;;;;;6.63;3.38;;;10.70;89.80;;;;;;5090885;28;20496;-78
2022/12/24 01:27:57;;;;;;;6.95;3.78;;;10.70;89.70;;;;;;5095499;28;20031;-76
2022/12/24 01:30:23;;;;;;;6.80;3.45;;;10.70;89.80;;;;;;5095242;28;20474;-76
2022/12/24 01:32:48;;;;;;;6.05;3.47;;;10.70;89.80;;;;;;5089544;28;20112;-77
2022/12/24 01:35:14;;;;;;;5.72;3.20;;;10.70;89.70;;;;;;5074811;28;20035;-77
2022/12/24 01:37:41;;;;;;;6.60;3.60;;;10.70;89.80;;;;;;5073634;28;20070;-77
2022/12/24 01:45:46;;;;;;;5.55;3.17;;;10.70;89.80;;;;;;5076381;28;20061;-76
2022/12/24 01:48:19;;;;;;;6.47;3.38;;;10.70;89.70;;;;;;5073573;28;20052;-77
2022/12/24 01:50:46;;;;;;;6.90;3.65;;;10.70;89.70;;;;;;5073391;28;20593;-77
2022/12/24 01:53:13;;;;;;;6.68;3.50;;;10.70;89.80;;;;;;5089974;28;20024;-81
2022/12/24 01:55:39;;;;;;;7.20;3.55;;;10.70;89.70;;;;;;5094501;28;20474;-78
2022/12/24 01:58:08;;;;;;;7.20;3.55;;;10.70;89.70;;;;;;5095369;28;20046;-78
2022/12/24 02:00:34;;;;;;;6.93;3.33;;;10.70;89.80;;;;;;5095191;28;20017;-79
2022/12/24 02:02:59;;;;;;;5.90;3.15;;;10.70;89.70;;;;;;5094560;28;20028;-77
2022/12/24 02:05:37;;;;;;;6.75;3.25;;;10.70;89.70;;;;;;5093337;28;20042;-77
2022/12/24 02:08:04;;;;;;;6.07;2.97;;;10.70;89.70;;;;;;5094389;28;20036;-76
2022/12/24 02:10:30;;;;;;;6.13;3.05;;;10.70;89.60;;;;;;5094506;28;20036;-76
2022/12/24 02:12:56;;;;;;;5.53;2.90;;;10.70;89.70;;;;;;5081151;28;20112;-78
2022/12/24 02:15:22;;;;;;;5.75;3.00;;;10.70;89.60;;;;;;5073009;28;20032;-77
2022/12/24 02:18:22;;;;;;;6.72;3.08;;;10.70;89.60;;;;;;5074107;28;20032;-77
2022/12/24 02:21:05;;;;;;;5.18;2.90;;;10.70;89.50;;;;;;5089585;28;20017;-77
2022/12/24 02:23:48;;;;;;;5.85;2.83;;;10.70;89.70;;;;;;5072731;28;20477;-77
2022/12/24 02:26:56;;;;;;;6.18;3.15;;;10.70;89.70;;;;;;5073999;28;20024;-78
2022/12/24 02:29:48;;;;;;;5.63;3.00;;;10.70;89.60;;;;;;5061442;28;20040;-78
2022/12/24 02:32:34;;;;;;;7.20;3.05;;;10.70;89.60;;;;;;5072320;28;20063;-78
2022/12/24 02:35:14;;;;;;;6.18;3.00;;;10.70;89.60;;;;;;5073767;28;20024;-78
2022/12/24 02:37:45;;;;;;;5.97;3.07;;;10.70;89.60;;;;;;5074088;28;20521;-77
2022/12/24 02:40:17;;;;;;;6.10;2.80;;;10.70;89.50;;;;;;5072594;28;20020;-78
2022/12/24 02:42:47;;;;;;;;;;;10.70;89.60;;;;;;5075489;28;20032;-79
2022/12/24 02:45:27;;;;;;;6.40;3.03;;;10.70;89.60;;;;;;5074465;28;19904;-78
2022/12/24 02:47:54;;;;;;;5.07;2.58;;;10.70;89.50;;;;;;5072355;28;20036;-78
2022/12/24 02:50:20;;;;;;;6.40;2.88;;;10.70;89.50;;;;;;5072314;28;20036;-78
2022/12/24 02:52:46;;;;;;;6.88;3.00;;;10.70;89.50;;;;;;5072366;28;20067;-79
2022/12/24 02:55:30;;;;;;;6.88;2.67;;;10.70;89.50;;;;;;5086460;28;20032;-79
2022/12/24 02:58:20;;;;;;;5.13;2.65;;;10.70;89.50;;;;;;5093988;28;20104;-78
2022/12/24 03:01:21;;;;;;;6.50;2.88;;;10.70;89.40;;;;;;5092141;28;20025;-75
2022/12/24 03:04:38;;;;;;;6.03;2.70;;;10.70;89.90;;;;;;5093650;28;20024;-78
2022/12/24 03:07:14;;;;;;;6.15;2.90;;;10.70;89.40;;;;;;5093009;28;20040;-80
2022/12/24 03:09:55;;;;;;;4.97;2.50;;;10.70;89.50;;;;;;5089964;28;20031;-77
2022/12/24 03:12:37;;;;;;;6.30;2.83;;;10.80;89.50;;;;;;5091653;28;20386;-77
2022/12/24 03:15:05;;;;;;;5.45;2.40;;;10.80;89.40;;;;;;5093091;28;20051;-78
2022/12/24 03:17:35;;;;;;;6.93;2.58;;;10.80;89.30;;;;;;5092638;28;20055;-76
2022/12/24 03:20:02;;;;;;;5.65;2.75;;;10.80;89.30;;;;;;5093116;28;20034;-78
2022/12/24 03:22:31;;;;;;;5.38;2.65;;;10.80;89.20;;;;;;5084198;28;20024;-79
2022/12/24 03:24:57;;;;;;;5.95;2.47;;;10.80;88.90;;;;;;5074257;28;20024;-80
2022/12/24 03:27:26;;;;;;;5.78;2.95;;;10.90;88.80;;;;;;5072972;28;20505;-79
2022/12/24 03:29:51;;;;;;;5.70;2.80;;;10.90;88.60;;;;;;5072806;28;20375;-78
2022/12/24 03:32:23;;;;;;;6.32;3.00;;;10.90;88.60;;;;;;5071218;28;20027;-78
2022/12/24 03:34:48;;;;;;;5.35;2.40;;;11.00;88.60;;;;;;5071559;28;20028;-77
2022/12/24 03:37:13;;;;;;;4.88;2.33;;;10.90;88.60;;;;;;5073095;28;20044;-80
2022/12/24 03:39:39;;;;;;;5.00;2.50;;;10.90;88.60;;;;;;5072143;28;20390;-79
2022/12/24 03:42:05;;;;;;;5.80;2.47;;;10.90;88.80;;;;;;5075264;28;20120;-78
2022/12/24 03:44:30;;;;;;;5.93;2.50;;;10.90;88.90;;;;;;5090914;28;20136;-77
2022/12/24 03:46:55;;;;;;;5.50;2.80;;;10.80;88.90;;;;;;5092009;28;20035;-77
2022/12/24 03:49:21;;;;;;;5.45;2.50;;;10.80;89.10;;;;;;5090937;28;20557;-77
2022/12/24 03:51:46;;;;;;;5.20;2.40;;;10.80;89.20;;;;;;5088454;28;20024;-76
2022/12/24 03:54:12;;;;;;;5.70;2.40;;;10.80;89.30;;;;;;5089977;28;20052;-78
2022/12/24 03:56:37;;;;;;;6.03;2.47;;;10.80;89.30;;;;;;5090589;28;20028;-76
2022/12/24 03:59:03;;;;;;;5.90;2.60;;;10.80;89.40;;;;;;5091961;28;20024;-76
2022/12/24 04:01:29;;;;;;;5.90;2.58;;;10.80;89.40;;;;;;5089619;28;20550;-76
2022/12/24 04:03:54;;;;;;;5.65;2.38;;;10.80;89.40;;;;;;5085221;28;20020;-77
2022/12/24 04:06:20;;;;;;;5.85;2.60;;;10.80;89.50;;;;;;5081019;28;20073;-77
2022/12/24 04:08:45;;;;;;;7.25;2.60;;;10.70;89.40;;;;;;5090700;28;20020;-77
2022/12/24 04:11:14;;;;;;;5.03;2.40;;;10.70;89.40;;;;;;5091683;28;20470;-77
2022/12/24 04:13:39;;;;;;;3.70;2.00;;;10.80;89.50;;;;;;5087299;28;20024;-77
2022/12/24 04:16:08;;;;;;;5.43;2.50;;;10.70;89.50;;;;;;5092410;28;20031;-79
2022/12/24 04:18:34;;;;;;;6.03;2.55;;;10.80;89.50;;;;;;5091252;28;20101;-79
2022/12/24 04:21:00;;;;;;;6.15;2.15;;;10.70;89.50;;;;;;5092009;28;20031;-77
2022/12/24 04:23:28;;;;;;;5.03;2.35;;;10.80;89.50;;;;;;5086163;28;20024;-77
2022/12/24 04:25:54;;;;;;;5.57;2.40;;;10.70;89.50;;;;;;5090587;28;20016;-76
2022/12/24 04:28:19;;;;;;;6.45;2.40;;;10.70;89.50;;;;;;5091873;28;20024;-76
2022/12/24 04:30:45;;;;;;;6.40;2.35;;;10.70;89.50;;;;;;5094869;28;20111;-76
2022/12/24 04:33:10;;;;;;;5.63;2.72;;;10.70;89.50;;;;;;5091713;28;20032;-77
2022/12/24 04:35:40;;;;;;;5.20;2.20;;;10.70;89.50;;;;;;5095628;28;20016;-76
2022/12/24 04:38:06;;;;;;;6.05;2.22;;;10.80;89.60;;;;;;5094906;28;20032;-78
2022/12/24 04:40:32;;;;;;;5.13;2.25;;;10.80;89.60;;;;;;5094531;28;20059;-77
2022/12/24 04:42:57;;;;;;;5.25;2.17;;;10.70;89.60;;;;;;5090981;28;20056;-77
2022/12/24 04:45:23;;;;;;;5.93;2.33;;;10.80;89.60;;;;;;5094913;28;20093;-79
2022/12/24 04:47:48;;;;;;;5.85;2.17;;;10.70;89.50;;;;;;5096364;28;20031;-78
2022/12/24 04:50:14;;;;;;;5.07;2.10;;;10.80;89.50;;;;;;5096005;28;20538;-77
2022/12/24 04:52:39;;;;;;;4.97;2.10;;;10.80;89.60;;;;;;5090902;28;20497;-76
2022/12/24 04:55:05;;;;;;;5.90;2.35;;;10.70;89.50;;;;;;5095212;28;20031;-77
2022/12/24 04:57:32;;;;;;;5.13;2.30;;;10.80;89.60;;;;;;5095300;28;20028;-77
2022/12/24 04:59:58;;;;;;;5.70;2.30;;;10.80;89.50;;;;;;5094063;28;20566;-76
2022/12/24 05:02:23;;;;;;;5.30;2.38;;;10.60;89.40;;;;;;5091526;28;20051;-78
2022/12/24 05:04:49;;;;;;;4.93;2.40;;;10.80;89.50;;;;;;5094182;28;20024;-78
2022/12/24 05:07:15;;;;;;;5.55;2.40;;;10.80;89.50;;;;;;5095985;28;20031;-79
2022/12/24 05:09:40;;;;;;;5.43;2.20;;;10.70;89.40;;;;;;5094588;28;20023;-79
2022/12/24 05:12:06;;;;;;;5.13;1.98;;;10.70;89.50;;;;;;5082803;28;20081;-79
2022/12/24 05:14:31;;;;;;;4.78;1.95;;;10.70;89.40;;;;;;5096143;28;20023;-78
2022/12/24 05:16:57;;;;;;;6.03;2.28;;;10.80;89.40;;;;;;5098858;28;20032;-78
2022/12/24 05:19:22;;;;;;;6.25;2.45;;;10.80;89.40;;;;;;5095660;28;20031;-78
2022/12/24 05:26:20;;;;;;;5.40;2.38;;;10.80;89.50;;;;;;5092619;28;20111;-77
2022/12/24 05:27:18;;;;;;;6.72;2.60;;;10.70;89.40;;;;;;5098337;28;20153;-78
2022/12/24 05:29:43;;;;;;;5.18;2.30;;;10.80;89.50;;;;;;5098885;28;20039;-78
2022/12/24 05:32:08;;;;;;;4.50;1.95;;;10.70;89.40;;;;;;5092260;28;20105;-78
2022/12/24 05:34:34;;;;;;;4.32;1.83;;;10.80;89.50;;;;;;5093964;28;20020;-78
2022/12/24 05:36:59;;;;;;;4.70;1.90;;;10.80;89.40;;;;;;5098714;28;20498;-78
2022/12/24 05:39:25;;;;;;;6.45;2.22;;;10.80;89.50;;;;;;5096867;28;20020;-78
2022/12/24 05:41:50;;;;;;;5.10;2.03;;;10.80;89.50;;;;;;5097906;28;20107;-78
2022/12/24 05:44:16;;;;;;;5.15;2.20;;;10.70;89.40;;;;;;5102122;28;20031;-78
2022/12/24 05:46:42;;;;;;;5.63;2.20;;;10.70;89.40;;;;;;5101159;28;20020;-77
2022/12/24 05:49:08;;;;;;;5.47;2.08;;;10.80;89.40;;;;;;5101714;28;20043;-78
2022/12/24 05:51:34;;;;;;;4.80;2.00;;;10.70;89.40;;;;;;5100687;28;20506;-78
2022/12/24 05:53:59;;;;;;;4.70;2.25;;;10.80;89.40;;;;;;5097479;28;20683;-78
2022/12/24 05:56:25;;;;;;;5.55;2.05;;;10.80;89.50;;;;;;5102280;28;20032;-78
2022/12/24 05:58:52;;;;;;;6.28;2.22;;;10.80;89.40;;;;;;5101673;28;20024;-78
2022/12/24 06:01:18;;;;;;;6.40;2.28;;;10.80;89.40;;;;;;5102670;28;20031;-78
2022/12/24 06:03:44;;;;;;;5.60;2.00;;;10.80;89.30;;;;;;5098641;28;20024;-78
2022/12/24 06:06:13;;;;;;;5.20;1.90;;;10.70;89.30;;;;;;5099937;28;20107;-79
2022/12/24 06:08:40;;;;;;;4.35;1.98;;;10.80;89.30;;;;;;5099225;28;20020;-78
2022/12/24 06:11:10;;;;;;;4.47;2.00;;;10.70;89.30;;;;;;5099033;28;20081;-78
2022/12/24 06:13:36;;;;;;;5.53;2.10;;;10.80;89.40;;;;;;5101346;28;20020;-82
2022/12/24 06:16:04;;;;;;;5.22;1.80;;;10.80;89.30;;;;;;5103309;28;20020;-82
2022/12/24 06:18:32;;;;;;;5.25;2.10;;;10.80;89.20;;;;;;5103035;28;20024;-79
2022/12/24 06:20:58;;;;;;;5.03;2.08;;;10.80;89.10;;;;;;5098139;28;20027;-77
2022/12/24 06:23:25;;;;;;;4.50;1.90;;;10.90;89.00;;;;;;5091938;28;20030;-78
2022/12/24 06:25:51;;;;;;;4.93;1.90;;;10.90;88.90;;;;;;5092261;28;20463;-78
2022/12/24 06:28:17;;;;;;;4.65;1.90;;;10.90;88.70;;;;;;5098421;28;20096;-78
2022/12/24 06:30:47;;;;;;;5.07;1.90;;;10.90;88.60;;;;;;5097214;28;20382;-77
2022/12/24 06:33:13;;;;;;;5.13;2.15;;;10.90;88.50;;;;;;5093866;28;20166;-77
2022/12/24 06:35:39;;;;;;;5.10;1.98;;;11.00;88.90;;;;;;5096008;28;20070;-77
2022/12/24 06:38:04;;;;;;;6.72;1.90;;;11.00;88.40;;;;;;5083847;28;20039;-77
2022/12/24 06:40:30;;;;;;;4.70;1.80;;;11.00;88.40;;;;;;5078584;28;20707;-77
2022/12/24 06:42:55;;;;;;;4.07;1.65;;;10.90;88.40;;;;;;5083596;28;20478;-77
2022/12/24 06:45:21;;;;;;;5.40;1.75;;;10.90;88.60;;;;;;5094700;28;20016;-78
2022/12/24 06:47:46;;;;;;;4.50;1.80;;;10.90;88.70;;;;;;5093886;28;20081;-78
2022/12/24 06:50:12;;;;;;;3.90;1.77;;;10.90;88.80;;;;;;5095433;28;20032;-77
2022/12/24 06:52:37;;;;;;;4.20;1.63;;;10.90;89.00;;;;;;5093312;28;20026;-77
2022/12/24 06:55:04;;;;;;;4.53;1.80;;;10.90;89.10;;;;;;5092191;28;20429;-77
2022/12/24 06:57:33;;;;;;;5.53;1.90;;;10.80;89.20;;;;;;5098376;28;20024;-78
2022/12/24 06:59:59;;;;;;;5.10;1.80;;;10.80;89.20;;;;;;5099822;28;20557;-77
2022/12/24 07:02:25;;;;;;;4.57;1.77;;;10.80;89.30;;;;;;5096581;28;20051;-78
2022/12/24 07:04:50;;;;;;;4.45;1.90;;;10.70;89.20;;;;;;5093269;28;20024;-77
2022/12/24 07:07:15;;;;;;;4.57;2.00;;;10.70;89.30;;;;;;5095325;28;20031;-78
2022/12/24 07:09:41;;;;;;;5.13;1.90;;;10.80;89.40;;;;;;5096105;28;20030;-77
2022/12/24 07:12:07;;;;;;;5.10;1.83;;;10.80;89.40;;;;;;5092864;28;20032;-77
2022/12/24 07:14:32;;;;;;;4.85;1.85;;;10.80;89.40;;;;;;5095056;28;20024;-77
2022/12/24 07:16:58;;;;;;;3.92;1.85;;;10.80;89.40;;;;;;5092890;28;20032;-77
2022/12/24 07:19:23;;;;;;;3.83;1.60;;;10.80;89.50;;;;;;5095004;28;20024;-77
2022/12/24 07:21:49;;;;;;;4.18;2.10;;;10.80;89.50;;;;;;5092491;28;20034;-77
2022/12/24 07:24:15;;;;;;;4.47;1.88;;;10.80;89.50;;;;;;5086972;28;20046;-77
2022/12/24 07:26:40;;;;;;;4.93;1.70;;;10.80;89.50;;;;;;5091871;28;20021;-77
2022/12/24 07:29:06;;;;;;;9.65;2.25;;;10.70;89.50;;;;;;5092652;28;20021;-78
2022/12/24 07:31:31;;;;;;;5.80;2.05;;;10.80;89.90;;;;;;5093954;28;20573;-78
2022/12/24 07:33:57;;;;;;;6.65;2.28;;;10.80;90.00;;;;;;5083341;28;20024;-77
2022/12/24 07:36:23;;;;;;;7.38;2.28;;;10.80;90.00;;;;;;5090231;28;20135;-77
2022/12/24 07:38:48;;;;;;;8.10;2.42;;;10.70;90.00;;;;;;5091656;28;20023;-76
2022/12/24 07:41:14;;;;;;;10.20;2.30;;;10.80;90.00;;;;;;5091691;28;20162;-77
2022/12/24 07:43:40;;;;;;;8.65;2.55;;;10.80;90.00;;;;;;5087691;28;20032;-77
2022/12/24 07:46:05;;;;;;;7.70;2.20;;;10.80;90.00;;;;;;5092675;28;20016;-77
2022/12/24 07:48:31;;;;;;;7.30;2.20;;;10.80;90.00;;;;;;5092840;28;20119;-77
2022/12/24 07:50:58;;;;;;;6.72;2.10;;;10.80;90.00;;;;;;5089662;28;20020;-77
2022/12/24 07:53:25;;;;;;;7.50;2.05;;;10.80;89.90;;;;;;5088421;28;20397;-76
2022/12/24 07:55:50;;;;;;;8.25;2.25;;;10.70;89.80;;;;;;5084719;28;20561;-77
2022/12/24 07:58:16;;;;;;;6.22;1.90;;;10.80;89.90;;;;;;5074526;28;20036;-77
2022/12/24 08:00:42;;;;;;;6.45;2.05;;;10.80;89.90;;;;;;5081763;28;20028;-76
2022/12/24 08:03:14;;;;;;;6.07;2.13;;;10.80;89.80;;;;;;5080524;28;20055;-77
2022/12/24 08:05:40;;;;;;;5.60;1.80;;;10.80;89.80;;;;;;5081355;28;20036;-77
2022/12/24 08:08:05;;;;;;;9.20;2.60;;;10.80;89.80;;;;;;5085731;28;20024;-78
2022/12/24 08:10:31;;;;;;;5.28;2.03;;;10.80;89.80;;;;;;5092962;28;20063;-77
2022/12/24 08:12:56;;;;;;;5.68;1.92;;;10.80;89.70;;;;;;5080912;28;20522;-77
2022/12/24 08:15:22;;;;;;;5.63;2.03;;;10.70;89.70;;;;;;5090162;28;20043;-77
2022/12/24 08:17:47;;;;;;;6.00;2.00;;;10.80;89.70;;;;;;5091756;28;20039;-77
2022/12/24 08:20:14;;;;;;;6.60;1.60;;;10.80;89.70;;;;;;5090574;28;20020;-77
2022/12/24 08:22:40;;;;;;;6.50;2.20;;;10.80;89.70;;;;;;5088936;28;20028;-76
2022/12/24 08:25:06;;;;;;;8.10;2.10;;;10.80;89.70;;;;;;5085986;28;20049;-77
2022/12/24 08:27:31;;;;;;;5.47;1.77;;;10.80;89.60;;;;;;5092564;28;20631;-77
2022/12/24 08:29:57;;;;;;;5.43;2.17;;;10.80;89.60;;;;;;5081298;28;20031;-78
2022/12/24 08:32:22;;;;;;;5.68;1.70;;;10.80;89.70;;;;;;5086345;28;20028;-77
2022/12/24 08:34:48;;;;;;;5.43;2.20;;;10.80;89.60;;;;;;5091208;28;20087;-76
2022/12/24 08:37:13;;;;;;;4.60;1.90;;;10.80;89.60;;;;;;5086895;28;20036;-77
2022/12/24 08:39:39;;;;;;;5.55;1.80;;;10.80;89.60;;;;;;5092263;28;20140;-76
2022/12/24 08:42:04;;;;;;;5.15;2.03;;;10.80;89.60;;;;;;5088108;28;20406;-77
2022/12/24 08:44:30;;;;;;;5.50;2.00;;;10.80;89.70;;;;;;5088341;28;20031;-77
2022/12/24 08:46:55;;;;;;;3.90;1.65;;;10.80;89.60;;;;;;5090139;28;20054;-76
2022/12/24 08:49:21;;;;;;;6.75;2.28;;;10.80;89.60;;;;;;5091542;28;20036;-76
2022/12/24 08:51:47;;;;;;;7.63;2.75;;;10.80;89.60;;;;;;5088307;28;20051;-78
2022/12/24 08:54:13;;;;;;;5.55;2.17;;;10.80;89.70;;;;;;5084095;28;20131;-77
2022/12/24 08:56:38;;;;;;;5.28;1.77;;;10.80;89.60;;;;;;5089170;28;20031;-82
2022/12/24 08:59:04;;;;;;;6.38;1.98;;;10.80;89.50;;;;;;5101938;28;20034;-82
2022/12/24 09:01:30;;;;;;;5.25;1.90;;;10.80;89.50;;;;;;5103274;28;20448;-82
2022/12/24 09:03:56;;;;;;;7.22;2.00;;;10.80;89.60;;;;;;5094059;28;20021;-83
2022/12/24 09:06:22;;;;;;;6.22;2.08;;;10.80;89.60;;;;;;5097412;28;20508;-82
2022/12/24 09:08:47;;;;;;;6.43;2.40;;;10.80;89.50;;;;;;5104319;28;20103;-82
2022/12/24 09:11:16;;;;;;;5.78;2.10;;;10.80;89.60;;;;;;5103919;28;20054;-79
2022/12/24 09:13:43;;;;;;;6.38;1.90;;;10.80;89.50;;;;;;5099823;28;20044;-81
2022/12/24 09:16:09;;;;;;;6.50;1.75;;;10.80;89.50;;;;;;5104911;28;20024;-83
2022/12/24 09:18:35;;;;;;;4.95;1.60;;;10.80;89.60;;;;;;5103656;28;20032;-82
2022/12/24 09:21:04;;;;;;;4.53;1.73;;;10.80;89.50;;;;;;5107533;28;20097;-83
2022/12/24 09:23:30;;;;;;;5.60;1.88;;;10.80;89.50;;;;;;5095063;28;20047;-76
2022/12/24 09:25:56;;;;;;;5.60;2.13;;;10.90;89.40;;;;;;5088608;28;20497;-76
2022/12/24 09:28:22;;;;;;;4.95;2.20;;;10.90;89.20;;;;;;5082228;28;20028;-77
2022/12/24 09:30:59;;;;;;;6.93;2.30;;;10.90;89.10;;;;;;5079688;28;20475;-75
2022/12/24 09:33:25;;;;;;;5.28;1.88;;;10.90;89.00;;;;;;5089440;28;20089;-76
2022/12/24 09:35:52;;;;;;;5.80;2.10;;;11.00;88.80;;;;;;5094226;28;20020;-76
2022/12/24 09:38:18;;;;;;;5.55;1.83;;;11.00;88.60;;;;;;5092691;28;20032;-76
2022/12/24 09:40:55;;;;;;;6.40;2.25;;;11.00;88.60;;;;;;5108045;22;20057;-82
2022/12/24 09:43:23;;;;;;;4.80;1.90;;;11.00;88.50;;;;;;5027664;28;20026;-80
2022/12/24 09:46:05;;;;;;;4.82;2.28;;;11.00;88.50;;;;;;5034117;28;20094;-77
2022/12/24 09:49:20;;;;;;;4.75;2.15;;;11.00;88.60;;;;;;5034436;28;20064;-83
2022/12/24 09:51:55;;;;;;;5.20;2.00;;;10.90;88.70;;;;;;5031105;28;20087;-80
2022/12/24 09:54:31;;;;;;;4.07;1.70;;;10.90;88.90;;;;;;5030927;28;20061;-78
2022/12/24 09:57:01;;;;;;;5.40;2.00;;;10.90;89.10;;;;;;5015951;28;20038;-80
2022/12/24 10:02:28;;;;;;;5.60;1.80;;;10.80;89.20;;;;;;5032018;28;20032;-81
2022/12/24 10:04:54;;;;;;;4.70;2.13;;;10.90;89.50;;;;;;5034547;28;20030;-80
2022/12/24 10:07:41;;;;;;;5.38;1.88;;;10.80;89.40;;;;;;5034156;28;20025;-79
2022/12/24 10:12:58;;;;;;;6.43;1.90;;;10.80;89.50;;;;;;5179955;23;20049;-78
2022/12/24 10:15:38;;;;;;;3.67;1.52;;;10.80;89.50;;;;;;5054311;28;20395;-79
2022/12/24 10:18:18;;;;;;;4.10;1.60;;;10.80;89.50;;;;;;5055313;28;20036;-81
2022/12/24 10:20:59;;;;;;;4.88;1.83;;;10.80;89.50;;;;;;5053137;28;20025;-80
2022/12/24 10:23:40;;;;;;;5.40;1.95;;;10.80;89.50;;;;;;5053259;28;20470;-82
2022/12/24 10:26:22;;;;;;;6.00;2.10;;;10.80;89.50;;;;;;5054630;28;20396;-79
2022/12/24 10:28:54;;;;;;;4.97;1.77;;;10.80;89.50;;;;;;5035348;28;20112;-81
2022/12/24 10:31:28;;;;;;;6.43;1.80;;;10.80;89.50;;;;;;5046496;28;20088;-82
2022/12/24 10:34:00;;;;;;;5.28;1.90;;;10.80;89.50;;;;;;5054376;28;20036;-80
2022/12/24 10:36:29;;;;;;;5.50;1.92;;;10.90;89.60;;;;;;5053780;28;20029;-80
2022/12/24 10:38:55;;;;;;;4.55;1.80;;;10.90;89.50;;;;;;5053715;28;20029;-82
2022/12/24 10:41:22;;;;;;;4.15;1.80;;;10.90;89.40;;;;;;5052450;28;20028;-81
2022/12/24 10:43:48;;;;;;;5.03;1.90;;;10.90;89.30;;;;;;5054976;28;20040;-80
2022/12/24 10:46:36;;;;;;;3.80;1.70;;;10.90;89.20;;;;;;5053642;28;20430;-79
2022/12/24 10:49:05;;;;;;;3.90;1.70;;;10.90;89.30;;;;;;5057009;28;20029;-83
2022/12/24 10:58:12;;;;;;;5.03;2.15;;;10.80;89.10;;;;;;5063271;28;20086;-82
2022/12/24 11:04:31;;;;;;;4.55;1.75;;;10.90;89.20;;;;;;5054190;28;20054;-86
2022/12/24 11:07:20;;;;;;;5.40;2.00;;;10.90;89.20;;;;;;5059478;28;20051;-80
2022/12/24 11:10:22;;;;;;;3.35;1.60;;;11.00;89.20;;;;;;5057750;28;20025;-83
2022/12/24 11:12:48;;;;;;;4.95;1.80;;;10.90;89.20;;;;;;5045324;28;20036;-81
2022/12/24 11:15:29;;;;;;;4.68;1.88;;;11.80;90.10;;;;;;5050369;28;20032;-81
2022/12/24 11:21:02;;;;;;;3.80;1.60;;;10.90;89.30;;;;;;5037872;28;20028;-80
2022/12/24 11:23:28;;;;;;;4.10;1.70;;;11.10;89.30;;;;;;5049705;28;20021;-80
2022/12/24 11:25:55;;;;;;;5.50;2.13;;;10.90;89.20;;;;;;5049604;28;20119;-80
2022/12/24 11:28:43;;;;;;;5.72;1.88;;;10.90;89.20;;;;;;5050119;28;20330;-81
2022/12/24 11:31:24;;;;;;;5.30;1.85;;;10.90;89.20;;;;;;5051576;28;20503;-81
2022/12/24 11:33:52;;;;;;;4.57;1.60;;;10.90;89.20;;;;;;5051879;28;20044;-81
2022/12/24 11:36:22;;;;;;;5.15;1.90;;;10.90;89.10;;;;;;5052627;28;20498;-80
2022/12/24 11:38:53;;;;;;;5.03;1.88;;;10.90;89.10;;;;;;5052106;28;20120;-79
2022/12/24 11:41:19;;;;;;;5.28;1.60;;;10.90;89.10;;;;;;5053256;28;20032;-80
2022/12/24 11:43:48;;;;;;;4.80;2.00;;;11.00;88.90;;;;;;5052658;28;20025;-82
2022/12/24 11:46:33;;;;;;;4.28;1.70;;;11.00;88.70;;;;;;5053061;28;20074;-81
2022/12/24 11:49:29;;;;;;;6.20;1.95;;;11.00;88.70;;;;;;5052737;28;20029;-80
2022/12/24 11:52:11;;;;;;;5.53;1.95;;;11.00;88.70;;;;;;5050845;28;20734;-80
2022/12/24 11:55:15;;;;;;;3.85;1.50;;;11.00;88.70;;;;;;5052217;28;20029;-81
2022/12/24 11:58:14;;;;;;;5.60;2.00;;;11.10;88.70;;;;;;5052239;28;20040;-85
2022/12/24 12:00:42;;;;;;;5.30;1.80;;;11.00;88.60;;;;;;5054355;28;20402;-84
2022/12/24 12:03:24;;;;;;;6.30;1.90;;;11.10;88.70;;;;;;5056894;28;20048;-84
2022/12/24 12:05:51;;;;;;;5.00;1.60;;;11.10;88.50;;;;;;5059668;28;20025;-82
2022/12/24 12:08:19;;;;;;;5.53;1.95;;;11.10;88.20;;;;;;5059360;28;20084;-79
2022/12/24 12:10:47;;;;;;;4.20;1.60;;;11.20;88.10;;;;;;5057054;28;20021;-82
2022/12/24 12:13:31;;;;;;;3.53;1.67;;;11.20;88.10;;;;;;5050470;28;20383;-81
2022/12/24 12:16:22;;;;;;;3.33;1.67;;;11.20;88.40;;;;;;5054702;28;20064;-81
2022/12/24 12:19:28;;;;;;;4.18;1.70;;;11.30;87.70;;;;;;5054235;28;20025;-81
2022/12/24 12:21:54;;;;;;;4.78;1.90;;;11.40;87.40;;;;;;5040063;28;20071;-81
2022/12/24 12:24:33;;;;;;;3.92;1.83;;;11.40;87.20;;;;;;5052277;28;20479;-82
2022/12/24 12:27:25;;;;;;;5.57;1.80;;;11.40;86.90;;;;;;5051388;28;20029;-80
2022/12/24 12:29:57;;;;;;;5.30;2.00;;;11.40;87.00;;;;;;5047260;28;20040;-80
2022/12/24 12:32:41;;;;;;;;;;;11.40;87.10;;;;;;5051392;28;20060;-80
2022/12/24 12:35:15;;;;;;;6.05;2.08;;;11.40;87.10;;;;;;5050771;28;19912;-81
2022/12/24 12:37:47;;;;;;;4.45;1.85;;;11.40;87.20;;;;;;5050907;28;20522;-80
2022/12/24 12:40:16;;;;;;;3.60;1.77;;;11.40;87.30;;;;;;5051073;28;20032;-80
2022/12/24 12:43:01;;;;;;;4.03;1.67;;;11.30;87.90;;;;;;5050673;28;20033;-79
2022/12/24 12:45:35;;;;;;;6.55;2.03;;;11.30;87.50;;;;;;5051184;28;20021;-80
2022/12/24 12:48:03;;;;;;;5.57;1.85;;;11.30;87.60;;;;;;5051103;28;20079;-80
2022/12/24 12:50:44;;;;;;;6.07;2.05;;;11.20;87.80;;;;;;5052211;28;20028;-84
2022/12/24 12:53:33;;;;;;;4.50;1.73;;;11.20;87.90;;;;;;5054904;28;20058;-81
2022/12/24 12:56:24;;;;;;;6.35;2.00;;;11.20;88.00;;;;;;5055415;28;20469;-81
2022/12/24 12:58:52;;;;;;;;;;;11.20;88.10;;;;;;5057552;28;20087;-83
2022/12/24 13:01:56;;;;;;;5.35;1.90;;;11.10;88.00;;;;;;5058154;28;20019;-86
2022/12/24 13:05:05;;;;;;;4.60;1.60;;;11.20;88.10;;;;;;5042230;28;20084;-82
2022/12/24 13:07:51;;;;;;;;;;;11.20;88.10;;;;;;5035695;28;20128;-83
2022/12/24 13:11:07;;;;;;;4.60;1.85;;;11.20;88.00;;;;;;5035405;28;19971;-84
2022/12/24 13:13:54;;;;;;;4.53;1.60;;;11.20;87.90;;;;;;4995245;28;20206;-84
2022/12/24 13:26:10;;;;;;;4.80;2.03;;;11.20;87.90;;;;;;5058797;28;20028;-82
2022/12/24 13:28:36;;;;;;;4.35;1.70;;;11.20;88.50;;;;;;5056489;28;20024;-87
2022/12/24 13:31:01;;;;;;;5.30;1.90;;;11.20;88.10;;;;;;5054912;28;20028;-82
2022/12/24 13:33:48;;;;;;;5.03;1.85;;;11.10;88.00;;;;;;5055389;28;20072;-82
2022/12/24 13:36:16;;;;;;;4.40;1.70;;;11.20;88.20;;;;;;5037716;28;20044;-83
2022/12/24 13:38:53;;;;;;;4.30;1.70;;;11.10;88.20;;;;;;5054428;28;20025;-82
2022/12/24 13:42:04;;;;;;;4.28;1.80;;;11.10;88.20;;;;;;5054640;28;20391;-83